Date,TemperatureHighF,TemperatureAvgF,TemperatureLowF,DewpointHighF,DewpointAvgF,DewpointLowF,HumidityHigh,HumidityAvg,HumidityLow,PressureMaxIn,PressureMinIn,WindSpeedMaxMPH,WindSpeedAvgMPH,GustSpeedMaxMPH,PrecipitationSumIn
2012-1-1,50,44,38,46,40,35,93,88,80,29.55,29.46,10,5,20,1.02
2012-1-2,51,42,36,49,39,34,98,91,81,29.72,29.33,29,8,43,1.65
2012-1-3,54,46,41,53,43,38,98,89,74,30.03,29.19,20,10,45,2.36
2012-1-4,51,46,41,49,43,38,93,89,84,30.16,29.76,16,8,29,0.35
2012-1-5,53,49,43,51,45,41,95,86,74,30.30,29.73,15,7,35,0.08
2012-1-6,54,48,42,51,46,40,97,92,86,30.35,30.20,7,4,15,0.04
2012-1-7,52,48,45,51,44,41,96,88,80,30.38,30.20,7,4,16,0.08
2012-1-8,57,50,44,53,48,41,98,91,68,30.38,30.34,7,2,15,0.04
2012-1-9,53,50,46,52,48,45,100,96,91,30.46,30.32,10,4,20,0.20
2012-1-10,51,50,46,50,49,45,99,97,94,30.47,30.41,9,5,19,0.08
2012-1-11,53,50,50,50,49,48,98,95,87,30.50,30.41,10,6,21,0.04
2012-1-12,54,51,46,51,49,45,98,95,90,30.51,30.36,8,3,15,0.12
2012-1-13,47,46,44,46,45,42,98,95,84,30.51,30.36,12,3,18,0.12
2012-1-14,49,48,47,45,43,40,89,83,76,30.36,29.98,29,20,41,0.04
2012-1-15,47,46,45,43,41,40,91,84,78,30.02,29.93,27,15,40,0.12
2012-1-16,49,48,46,48,46,43,99,93,89,30.14,30.01,21,15,30,0.04
2012-1-17,52,50,47,52,49,45,99,96,92,30.15,30.06,23,13,30,0.43
2012-1-18,53,51,48,53,51,47,100,98,95,30.20,30.08,7,2,13,0.28
2012-1-19,51,47,44,47,44,39,99,91,77,30.28,30.08,11,4,24,0.55
2012-1-20,54,50,44,52,47,40,95,89,78,30.29,30.11,8,5,17,0.04
2012-1-21,53,50,46,51,46,42,93,88,79,30.13,30.02,11,6,24,0.04
2012-1-22,51,48,46,46,44,41,93,84,75,30.14,30.02,10,4,22,0.00
2012-1-23,53,47,44,51,45,41,98,94,85,30.16,30.11,5,1,8,0.20
2012-1-24,56,52,49,54,51,47,99,95,92,30.11,29.95,12,6,22,0.12
2012-1-25,52,48,38,49,46,37,97,93,88,29.95,29.52,32,-643,47,1.26
2012-1-26,46,40,37,40,37,34,94,89,76,29.96,29.46,10,-774,16,0.39
2012-1-27,48,41,37,43,38,35,95,90,81,30.32,29.96,6,-825,16,0.20
2012-1-28,45,41,36,44,40,35,97,96,94,30.47,30.32,13,-416,20,0.39
2012-1-29,50,47,45,50,47,44,99,99,97,30.42,30.17,13,2,20,1.50
2012-1-30,50,47,44,50,47,43,99,99,98,30.17,29.99,12,5,24,0.31
2012-1-31,48,44,38,48,41,33,99,91,81,30.36,29.98,15,10,26,1.06
2012-2-1,42,38,34,36,34,30,89,83,73,30.56,30.35,11,6,21,0.04
2012-2-2,41,38,33,33,32,30,89,78,70,30.58,30.53,17,8,23,0.00
2012-2-3,47,43,39,45,38,31,96,81,73,30.60,30.53,15,9,22,0.16
2012-2-4,50,46,40,49,45,39,99,97,94,30.53,30.23,10,4,21,0.67
2012-2-5,50,44,39,50,42,37,99,95,88,30.44,30.33,5,1,10,0.24
2012-2-6,53,50,48,52,49,47,99,98,94,30.55,30.44,9,2,17,0.28
2012-2-7,48,47,46,47,46,45,99,96,91,30.60,30.53,16,9,22,0.08
2012-2-8,48,46,44,46,44,42,97,92,82,30.61,30.57,21,15,28,0.75
2012-2-9,50,48,46,50,47,44,100,97,93,30.62,30.50,12,5,18,0.04
2012-2-10,53,49,47,52,49,46,99,99,96,30.50,30.42,6,1,11,0.12
2012-2-11,48,46,45,48,46,45,99,99,98,30.53,30.42,12,7,17,0.63
2012-2-12,53,47,43,49,45,41,99,94,81,30.63,30.34,10,3,16,0.16
2012-2-13,51,46,42,49,43,41,98,92,84,30.63,30.45,15,6,26,0.08
2012-2-14,52,47,44,45,43,41,93,86,76,30.57,30.30,16,9,30,0.04
2012-2-15,51,48,45,46,43,40,92,84,77,30.57,30.39,21,9,35,0.00
2012-2-16,54,50,45,48,46,42,93,87,78,30.48,30.03,6,3,13,0.04
2012-2-17,54,50,47,51,48,45,96,93,89,30.34,29.53,10,5,21,0.04
2012-2-18,50,45,36,48,42,33,97,89,72,30.18,29.33,12,6,23,0.59
2012-2-19,51,42,36,43,38,33,94,85,68,30.42,30.15,4,2,10,0.04
2012-2-20,50,47,40,48,44,37,96,91,84,30.42,30.02,11,6,22,0.12
2012-2-21,53,51,49,51,50,48,99,97,93,30.23,29.87,16,8,31,0.35
2012-2-22,59,54,50,57,53,50,99,97,90,30.11,29.28,20,9,34,0.24
2012-2-23,58,54,52,56,52,50,97,95,88,30.26,29.28,13,6,21,0.04
2012-2-24,56,52,49,54,50,46,98,93,83,30.41,29.46,9,4,18,0.08
2012-2-25,53,49,46,50,47,44,97,93,84,30.41,30.33,6,1,11,0.04
2012-2-26,51,49,47,51,48,46,99,98,97,30.37,30.25,10,4,16,0.04
2012-2-27,56,52,48,53,50,47,99,95,89,30.26,30.17,8,3,15,0.04
2012-2-28,54,50,48,50,48,46,99,92,81,30.23,30.16,11,4,15,0.04
2012-2-29,52,50,48,50,49,47,98,95,91,30.16,30.07,19,14,26,0.08
2012-3-1,59,53,50,54,51,49,97,93,78,30.27,30.10,11,6,17,0.08
2012-3-2,50,49,48,49,47,45,97,95,90,30.27,29.80,32,16,43,0.08
2012-3-3,55,47,40,49,44,38,97,88,73,30.01,29.73,33,7,53,0.67
2012-3-4,48,41,34,43,37,33,97,87,69,30.39,30.01,9,4,24,0.24
2012-3-5,54,44,37,45,40,35,96,84,66,30.44,30.32,6,2,12,0.04
2012-3-6,52,48,41,52,46,38,99,93,81,30.33,29.94,19,10,32,0.39
2012-3-7,52,47,41,52,42,-100,100,87,65,30.32,29.87,10,-1,23,0.35
2012-3-8,55,48,42,49,44,38,93,85,74,30.45,30.32,11,5,22,0.08
2012-3-9,60,53,50,55,51,47,97,92,82,30.55,30.40,10,5,19,0.00
2012-3-10,58,53,49,53,51,48,98,93,83,30.70,30.55,4,1,10,0.00
2012-3-11,53,50,47,50,48,45,99,95,89,30.70,30.59,7,1,9,0.04
2012-3-12,48,47,46,47,45,44,97,94,91,30.59,30.50,8,2,11,0.04
2012-3-13,51,47,45,48,44,43,95,93,88,30.53,30.44,8,3,13,0.04
2012-3-14,48,47,46,46,44,43,95,91,89,30.44,30.27,12,7,16,0.00
2012-3-15,52,49,46,51,48,43,99,94,88,30.27,30.04,13,5,20,0.00
2012-3-16,52,49,43,52,48,41,99,97,91,30.04,29.81,13,5,22,0.67
2012-3-17,52,44,39,46,41,37,97,89,73,29.88,29.67,5,1,10,0.12
2012-3-18,57,45,38,42,39,36,97,80,51,30.40,29.82,13,6,22,0.04
2012-3-19,53,47,39,49,44,37,93,88,79,30.50,30.40,8,3,18,0.00
2012-3-20,54,50,49,50,46,-100,91,86,79,30.53,30.48,10,4,18,0.00
2012-3-21,51,49,44,46,44,42,93,84,77,30.49,30.38,16,8,20,0.00
2012-3-22,51,47,42,49,45,-100,98,92,85,30.37,30.15,15,3,24,0.35
2012-3-23,53,49,46,51,48,44,96,94,91,30.17,30.13,25,14,35,0.43
2012-3-24,51,50,49,48,48,47,93,91,89,30.16,30.12,17,11,25,0.12
2012-3-25,58,56,52,53,51,48,87,83,79,30.45,30.37,9,6,16,0.00
2012-3-27,58,54,48,50,47,42,85,78,70,30.55,29.90,10,6,18,0.00
2012-3-28,54,51,48,45,43,42,80,74,68,30.53,30.48,5,2,8,0.00
2012-3-29,70,55,45,54,46,40,89,72,46,30.50,30.22,7,4,12,0.00
2012-3-30,56,50,43,50,46,41,95,87,78,30.43,30.26,12,6,20,0.00
2012-3-31,57,51,48,49,45,43,89,83,69,30.26,30.16,10,6,19,0.00
2012-4-1,54,48,41,50,44,39,92,87,78,30.22,30.03,6,3,10,0.00
2012-4-2,53,50,47,47,45,43,93,84,72,30.03,29.81,5,2,10,0.00
2012-4-3,52,45,38,46,39,31,96,81,50,29.92,29.70,17,7,30,0.04
2012-4-4,49,42,35,33,30,28,82,66,48,30.15,29.92,22,12,41,0.04
2012-4-5,54,44,37,39,35,31,82,69,50,30.20,30.14,16,8,25,0.00
2012-4-6,56,47,36,47,42,32,94,82,68,30.20,29.97,10,5,20,0.00
2012-4-7,61,53,49,52,49,46,94,86,69,30.09,29.96,16,7,27,0.00
2012-4-8,58,52,48,51,48,45,94,86,72,30.10,29.72,8,3,15,0.00
2012-4-9,55,48,39,52,46,36,97,92,72,29.72,29.07,10,5,23,0.98
2012-4-10,57,45,37,49,41,35,95,86,66,29.34,29.14,10,3,17,0.47
2012-4-11,58,47,38,50,43,37,97,86,67,29.66,29.34,13,3,25,0.63
2012-4-12,43,41,40,41,40,39,96,94,91,29.73,29.66,3,1,9,1.10
2012-4-13,53,44,38,45,41,36,95,88,69,29.72,29.65,9,3,12,0.24
2012-4-14,56,45,37,43,38,32,96,78,50,30.07,29.33,12,6,25,0.28
2012-4-15,54,45,35,40,35,-100,89,71,48,30.32,30.07,9,4,17,0.04
2012-4-16,52,47,45,52,43,37,99,87,67,30.30,29.59,24,12,34,0.39
2012-4-17,52,46,41,52,44,39,99,91,74,29.60,28.79,13,7,27,1.81
2012-4-18,57,48,43,48,44,41,95,85,68,29.21,28.79,14,8,32,0.71
2012-4-19,57,48,42,50,43,39,96,84,65,29.37,29.21,12,5,22,0.55
2012-4-20,42,41,40,39,38,37,92,90,87,29.37,29.34,4,2,9,0.39
2012-4-22,56,50,45,50,44,40,96,80,61,29.66,29.08,9,4,21,0.31
2012-4-23,57,48,43,48,44,41,96,86,68,29.47,29.24,16,8,26,0.98
2012-4-24,52,47,40,48,44,39,96,90,83,29.56,29.17,12,4,17,0.91
2012-4-25,49,45,43,45,43,41,96,91,82,29.17,28.86,19,11,35,1.18
2012-4-26,54,47,44,47,44,42,95,89,73,29.69,29.02,13,8,25,0.75
2012-4-27,53,45,40,45,42,36,93,88,69,30.06,29.69,10,6,19,1.89
2012-4-28,56,45,36,44,38,33,89,77,59,30.10,30.05,13,7,26,0.83
2012-4-29,49,45,42,39,37,33,89,74,57,30.07,29.66,24,14,42,0.20
2012-4-30,52,47,41,48,44,38,96,90,79,29.90,29.61,18,12,34,0.63
2012-5-1,52,50,48,51,49,45,100,95,80,30.11,29.87,14,8,31,2.60
2012-5-2,60,52,48,55,50,46,99,93,82,30.19,29.87,8,4,17,0.04
2012-5-3,52,49,46,51,48,45,98,97,96,30.10,29.79,7,2,11,1.10
2012-5-4,54,49,47,50,48,45,98,95,86,29.79,29.47,5,2,11,0.12
2012-5-5,52,47,44,45,42,37,94,81,68,29.91,29.31,12,5,21,0.08
2012-5-6,53,46,39,44,38,-100,89,76,54,29.92,29.77,16,5,24,0.43
2012-5-7,58,51,45,51,48,42,97,88,74,29.78,28.79,19,10,28,1.50
2012-5-8,58,52,45,49,46,43,95,81,65,29.70,29.59,8,3,20,0.04
2012-5-9,50,47,44,48,44,38,98,89,77,29.69,29.46,12,5,24,0.83
2012-5-10,57,53,48,57,51,45,100,95,85,29.91,29.44,7,3,15,1.10
2012-5-11,59,50,42,49,43,39,95,79,52,30.64,29.91,10,4,19,0.04
2012-5-12,58,50,39,51,44,37,91,81,63,30.75,30.64,9,3,14,0.04
2012-5-13,59,51,40,49,44,-100,96,81,64,30.66,30.10,12,5,26,0.04
2012-5-14,59,51,44,52,46,41,95,82,66,30.10,29.70,8,4,22,0.16
2012-5-15,62,49,40,46,41,37,90,74,51,30.33,30.05,10,4,21,0.04
2012-5-16,52,46,38,45,40,35,90,79,64,30.34,29.98,13,5,16,0.04
2012-5-17,54,49,46,48,45,41,93,85,76,30.14,29.49,7,3,16,0.24
2012-5-18,52,48,45,50,46,43,96,92,85,29.78,29.69,8,5,18,1.14
2012-5-19,53,49,47,50,47,45,96,93,88,29.91,29.73,10,4,20,0.59
2012-5-20,59,52,47,53,48,-100,96,89,78,29.91,29.60,11,3,15,0.04
2012-5-21,55,52,49,54,51,47,98,96,93,29.88,29.69,15,7,20,0.04
2012-5-22,56,54,53,56,54,52,100,100,98,30.12,29.80,13,9,19,0.08
2012-5-23,56,54,53,55,53,53,100,97,94,30.31,30.01,18,11,25,0.04
2012-5-24,62,57,54,59,55,52,99,94,86,30.35,29.26,8,3,13,0.00
2012-5-25,73,64,53,67,60,52,97,88,77,30.26,26.78,9,4,24,0.00
2012-5-26,71,64,55,58,55,52,91,73,60,30.00,25.32,16,9,34,0.00
2012-5-27,58,56,53,57,54,51,97,94,87,30.01,27.52,9,3,13,0.04
2012-5-28,59,56,53,58,54,50,98,94,87,30.03,29.24,19,10,27,0.16
2012-5-29,61,56,55,58,55,53,100,95,87,30.04,29.14,13,8,19,0.16
2012-5-30,67,59,55,62,57,53,99,92,79,29.98,28.57,10,3,16,0.31
2012-5-31,72,61,55,65,59,54,99,93,76,30.10,28.49,6,2,16,0.16
2012-6-1,66,61,58,63,59,57,97,93,88,29.89,27.72,7,2,10,0.04
2012-6-2,60,57,54,57,56,53,99,96,84,29.95,28.37,9,4,22,5.71
2012-6-3,58,55,51,57,53,-100,99,94,85,29.92,28.66,8,4,17,4.88
2012-6-4,58,53,47,52,48,45,96,85,73,30.05,29.26,13,5,18,0.20
2012-6-5,63,56,51,63,55,48,100,97,90,29.96,29.26,14,6,24,1.85
2012-6-6,63,56,51,59,54,50,99,95,85,29.55,28.47,13,4,17,0.87
2012-6-7,62,56,52,59,55,51,99,97,88,29.39,27.98,12,4,26,3.46
2012-6-8,62,55,49,53,50,44,98,84,67,29.75,26.81,11,6,24,0.87
2012-6-9,62,54,45,54,50,43,96,87,66,29.83,29.15,14,4,19,0.04
2012-6-10,61,56,51,57,53,50,99,92,77,29.81,29.52,12,2,16,0.00
2012-6-11,60,56,52,58,54,50,97,93,84,29.77,29.33,6,1,8,0.35
2012-6-12,63,55,50,60,52,49,98,92,75,29.93,29.77,9,2,18,0.75
2012-6-13,61,54,50,55,50,47,96,86,73,29.96,29.91,10,4,13,0.04
2012-6-14,55,53,51,54,51,48,98,93,85,29.91,27.76,23,12,38,4.80
2012-6-15,57,55,54,56,54,53,100,98,96,29.29,28.24,31,18,44,3.90
2012-6-16,60,56,52,58,54,49,99,93,81,29.68,27.95,8,4,18,1.02
2012-6-17,59,54,50,53,50,-100,96,88,76,29.98,27.10,13,3,17,0.04
2012-6-18,57,52,48,54,50,46,97,93,84,29.97,28.83,15,3,22,1.61
2012-6-19,59,54,46,56,52,45,98,93,85,30.01,29.27,16,6,20,0.04
2012-6-20,59,56,53,56,54,51,97,93,83,30.00,27.55,13,7,18,1.18
2012-6-21,58,55,52,58,54,51,99,95,86,29.54,28.27,5,2,13,2.68
2012-6-22,67,58,52,60,52,49,96,83,58,29.91,28.01,7,4,17,0.08
2012-6-23,59,55,53,57,53,51,99,94,83,29.91,26.12,19,6,26,0.35
2012-6-24,69,60,50,60,55,50,99,86,67,29.84,25.87,3,1,9,0.28
2012-6-25,59,55,50,57,53,49,98,94,88,30.01,26.98,9,3,13,0.08
2012-6-26,67,61,56,66,60,56,100,98,90,29.78,20.02,7,3,12,0.39
2012-6-27,59,58,57,59,58,57,100,99,98,29.16,24.80,8,3,13,0.67
2012-6-28,65,59,56,63,58,56,100,98,86,29.48,26.02,21,9,30,3.39
2012-6-29,67,59,53,62,56,53,99,92,73,29.26,22.81,20,5,26,0.75
2012-6-30,64,56,49,56,52,46,98,87,67,29.60,23.83,5,2,15,0.08
2012-7-1,60,55,48,60,53,46,99,94,85,29.88,28.95,20,4,28,0.35
2012-7-2,69,61,57,66,59,56,100,96,84,29.76,26.94,7,3,14,1.30
2012-7-3,60,58,56,60,58,56,100,99,97,29.66,29.10,14,9,20,1.42
2012-7-14,64,60,53,56,52,48,92,76,66,29.49,22.62,5,1,12,0.47
2012-7-15,63,56,50,62,54,48,98,91,75,30.09,8.75,5,2,14,0.67
2012-7-16,71,62,55,65,59,54,99,90,73,29.92,24.81,11,4,19,0.83
2012-7-17,69,62,55,67,60,54,100,95,89,32.15,21.90,7,3,16,0.20
2012-7-18,72,63,56,64,60,52,99,89,70,32.62,27.14,5,2,14,0.35
2012-7-19,70,60,52,61,55,49,98,84,65,32.74,28.43,5,1,12,0.08
2012-7-20,67,58,49,54,50,47,96,76,54,32.73,27.13,5,1,10,0.08
2012-7-21,66,58,49,58,53,47,94,85,68,32.58,27.42,12,4,17,0.00
2012-7-22,61,60,57,61,59,55,99,97,93,32.22,27.01,15,8,26,0.04
2012-7-23,64,62,60,64,62,60,100,100,99,32.72,27.05,10,5,20,0.31
2012-7-24,62,60,59,62,60,59,100,100,100,0.00,40.00,4,2,8,0.47
2012-10-11,53,46,42,46,42,40,92,86,77,29.75,29.65,327,-742,327,0.47
2012-10-12,54,45,40,50,43,39,99,91,78,29.77,29.68,6,-463,14,0.35
2012-10-13,60,46,39,50,43,38,96,89,69,29.74,29.65,3,0,8,0.04
2012-10-14,61,47,38,52,44,37,97,88,66,29.69,29.61,4,2,11,0.00
2012-10-15,54,48,45,51,46,42,97,93,87,29.67,29.35,13,2,20,0.51
2012-10-16,58,50,42,52,46,40,94,87,71,29.54,29.15,24,8,40,0.75
2012-10-17,55,52,50,52,50,47,96,91,82,29.15,28.86,33,20,55,3.11
2012-10-18,59,51,47,54,49,46,97,92,80,29.57,28.98,7,2,12,0.35
2012-10-19,55,51,47,52,49,46,100,94,86,29.77,29.57,5,1,10,0.04
2012-10-20,58,53,49,55,51,48,98,94,85,29.92,29.77,16,8,22,0.08
2012-10-21,57,54,53,53,53,51,97,93,85,30.02,29.92,17,10,24,0.04
2012-10-22,56,54,52,54,52,51,97,94,90,30.22,30.02,8,3,16,0.00
2012-10-23,57,55,53,55,53,52,96,95,90,30.27,30.20,7,2,13,0.00
2012-10-24,55,55,54,54,54,53,98,96,95,30.24,30.01,8,5,18,0.20
2012-10-25,60,55,50,56,53,48,96,93,84,30.01,29.94,11,7,21,0.04
2012-10-26,52,46,38,49,42,30,97,85,73,30.15,29.96,14,8,27,0.24
2012-10-27,50,40,33,38,33,29,89,76,52,30.35,30.15,13,6,20,0.04
2012-10-28,46,46,46,45,45,45,96,95,95,29.69,29.69,3,3,8,0.04
2012-10-29,52,46,40,48,43,39,100,92,81,29.88,29.68,8,3,18,0.08
2012-10-30,55,45,39,48,42,37,95,90,74,29.88,29.31,8,2,17,0.04
2012-10-31,50,44,37,48,43,35,97,93,88,29.31,28.81,12,3,25,1.61
2012-11-1,51,40,34,43,38,33,97,91,70,29.10,28.82,8,3,20,0.51
2012-11-2,55,41,35,47,38,33,95,89,70,29.28,29.09,7,2,13,0.51
2012-11-3,49,41,34,41,37,32,95,86,70,29.34,29.21,11,4,21,0.16
2012-11-4,48,44,39,47,42,37,96,93,81,29.45,29.03,13,6,31,1.18
2012-11-5,51,44,39,44,40,37,95,87,74,30.17,29.45,11,4,21,0.04
2012-11-6,42,40,39,41,39,38,96,96,95,30.20,30.17,2,0,6,0.00
2012-11-8,49,47,45,47,45,43,95,93,90,30.02,29.90,7,4,14,0.00
2012-11-9,51,49,48,50,48,46,98,95,90,29.90,29.54,8,5,17,0.83
2012-11-12,54,54,53,53,53,52,98,98,98,30.01,30.01,10,10,20,0.24
2012-11-13,54,54,53,54,53,52,100,98,96,30.03,29.98,24,16,37,0.24
2012-11-14,53,50,51,51,47,-100,96,93,92,30.23,30.18,3,1,6,0.31
2012-11-15,51,49,46,50,48,45,99,98,96,30.22,30.02,2,0,5,0.04
2012-11-16,49,47,44,49,47,43,99,98,96,30.02,29.76,4,0,6,0.24
2012-11-17,53,44,37,47,41,35,98,91,72,29.90,29.76,4,1,10,0.12
2012-11-18,49,42,35,48,40,34,97,94,84,29.90,29.58,39,11,51,2.44
2012-11-19,55,52,51,53,51,49,99,95,90,29.52,29.35,12,7,24,4.21